Time,TemperatureF,DewpointF,PressureIn,WindDirection,WindDirectionDegrees,WindSpeedMPH,WindSpeedGustMPH,Humidity,HourlyPrecipIn,Conditions,Clouds,dailyrainin,SolarRadiationWatts/m^2,SoftwareType,DateUTC
2013-01-23 00:02:00,21.0,10.0,-100.00,NNE,17,1.0,5.0,62,0.00,,,0.00,0.000000,,2013-01-23 07:02:00,
2013-01-23 00:12:00,21.0,10.0,-100.00,NNE,17,1.0,5.0,62,0.00,,,0.00,0.000000,,2013-01-23 07:12:00,
2013-01-23 00:33:00,20.0,8.0,-100.00,North,2,1.0,3.0,60,0.00,,,0.00,0.000000,,2013-01-23 07:33:00,
2013-01-23 00:43:00,20.0,8.0,-100.00,North,2,1.0,3.0,60,0.00,,,0.00,0.000000,,2013-01-23 07:43:00,
2013-01-23 00:53:00,20.0,8.0,-100.00,North,2,1.0,3.0,60,0.00,,,0.00,0.000000,,2013-01-23 07:53:00,
2013-01-23 01:02:00,20.0,8.0,-100.00,North,2,1.0,3.0,60,0.00,,,0.00,0.000000,,2013-01-23 08:02:00,
2013-01-23 01:12:00,20.0,8.0,-100.00,North,2,1.0,3.0,60,0.00,,,0.00,0.000000,,2013-01-23 08:12:00,
2013-01-23 01:43:00,21.0,12.0,-100.00,South,171,1.0,4.0,68,0.00,,,0.00,0.000000,,2013-01-23 08:43:00,
2013-01-23 01:53:00,21.0,12.0,-100.00,South,171,1.0,4.0,68,0.00,,,0.00,0.000000,,2013-01-23 08:53:00,
2013-01-23 02:02:00,21.0,12.0,-100.00,South,171,1.0,4.0,68,0.00,,,0.00,0.000000,,2013-01-23 09:02:00,
2013-01-23 02:12:00,21.0,12.0,-100.00,South,171,1.0,4.0,68,0.00,,,0.00,0.000000,,2013-01-23 09:12:00,
2013-01-23 02:43:00,23.0,13.0,-100.00,SSE,152,2.0,4.0,64,0.00,,,0.00,0.000000,,2013-01-23 09:43:00,
2013-01-23 02:53:00,23.0,13.0,-100.00,SSE,152,2.0,4.0,64,0.00,,,0.00,0.000000,,2013-01-23 09:53:00,
2013-01-23 03:02:00,23.0,13.0,-100.00,SSE,152,2.0,4.0,64,0.00,,,0.00,0.000000,,2013-01-23 10:02:00,
2013-01-23 03:12:00,23.0,13.0,-100.00,SSE,152,2.0,4.0,64,0.00,,,0.00,0.000000,,2013-01-23 10:12:00,
2013-01-23 03:33:00,19.0,10.0,-100.00,North,357,0.0,2.0,68,0.00,,,0.00,0.000000,,2013-01-23 10:33:00,
2013-01-23 03:43:00,19.0,10.0,-100.00,North,357,0.0,2.0,68,0.00,,,0.00,0.000000,,2013-01-23 10:43:00,
2013-01-23 03:53:00,19.0,10.0,-100.00,North,357,0.0,2.0,68,0.00,,,0.00,0.000000,,2013-01-23 10:53:00,
2013-01-23 04:02:00,19.0,10.0,-100.00,North,357,0.0,2.0,68,0.00,,,0.00,0.000000,,2013-01-23 11:02:00,
2013-01-23 04:11:00,19.0,10.0,-100.00,North,357,0.0,2.0,68,0.00,,,0.00,0.000000,,2013-01-23 11:11:00,
2013-01-23 04:34:00,20.0,12.0,-100.00,West,274,1.0,3.0,70,0.00,,,0.00,0.000000,,2013-01-23 11:34:00,
2013-01-23 04:43:00,20.0,12.0,-100.00,West,274,1.0,3.0,70,0.00,,,0.00,0.000000,,2013-01-23 11:43:00,
2013-01-23 04:53:00,20.0,12.0,-100.00,West,274,1.0,3.0,70,0.00,,,0.00,0.000000,,2013-01-23 11:53:00,
2013-01-23 05:03:00,20.0,12.0,-100.00,West,274,1.0,3.0,70,0.00,,,0.00,0.000000,,2013-01-23 12:03:00,
2013-01-23 05:12:00,20.0,12.0,-100.00,West,274,1.0,3.0,70,0.00,,,0.00,0.000000,,2013-01-23 12:12:00,
2013-01-23 05:33:00,18.0,10.0,-100.00,North,350,1.0,3.0,69,0.00,,,0.00,0.000000,,2013-01-23 12:33:00,
2013-01-23 05:43:00,18.0,10.0,-100.00,North,350,1.0,3.0,69,0.00,,,0.00,0.000000,,2013-01-23 12:43:00,
2013-01-23 05:53:00,18.0,10.0,-100.00,North,350,1.0,3.0,69,0.00,,,0.00,0.000000,,2013-01-23 12:53:00,
2013-01-23 06:03:00,18.0,10.0,-100.00,North,350,1.0,3.0,69,0.00,,,0.00,0.000000,,2013-01-23 13:03:00,
2013-01-23 06:12:00,18.0,10.0,-100.00,North,350,1.0,3.0,69,0.00,,,0.00,0.000000,,2013-01-23 13:12:00,
2013-01-23 06:33:00,21.0,12.0,-100.00,North,11,1.0,4.0,69,0.00,,,0.00,0.000000,,2013-01-23 13:33:00,
2013-01-23 06:43:00,21.0,12.0,-100.00,North,11,1.0,4.0,69,0.00,,,0.00,0.000000,,2013-01-23 13:43:00,
2013-01-23 06:53:00,21.0,12.0,-100.00,North,11,1.0,4.0,69,0.00,,,0.00,0.000000,,2013-01-23 13:53:00,
2013-01-23 07:02:00,21.0,12.0,-100.00,North,11,1.0,4.0,69,0.00,,,0.00,0.000000,,2013-01-23 14:02:00,
2013-01-23 07:12:00,21.0,12.0,-100.00,North,11,1.0,4.0,69,0.00,,,0.00,0.000000,,2013-01-23 14:12:00,
2013-01-23 07:43:00,20.0,11.0,-100.00,NNE,28,2.0,5.0,69,0.00,,,0.00,0.000000,,2013-01-23 14:43:00,
2013-01-23 07:53:00,20.0,11.0,-100.00,NNE,28,2.0,5.0,69,0.00,,,0.00,0.000000,,2013-01-23 14:53:00,
2013-01-23 08:02:00,20.0,11.0,-100.00,NNE,28,2.0,5.0,69,0.00,,,0.00,0.000000,,2013-01-23 15:02:00,
2013-01-23 08:12:00,20.0,11.0,-100.00,NNE,28,2.0,5.0,69,0.00,,,0.00,0.000000,,2013-01-23 15:12:00,
2013-01-23 08:33:00,19.0,11.0,-100.00,NE,49,2.0,4.0,71,0.00,,,0.00,1.000000,,2013-01-23 15:33:00,
2013-01-23 08:43:00,19.0,11.0,-100.00,NE,49,2.0,4.0,71,0.00,,,0.00,1.000000,,2013-01-23 15:43:00,
2013-01-23 08:53:00,19.0,11.0,-100.00,NE,49,2.0,4.0,71,0.00,,,0.00,1.000000,,2013-01-23 15:53:00,
2013-01-23 09:02:00,19.0,11.0,-100.00,NE,49,2.0,4.0,71,0.00,,,0.00,1.000000,,2013-01-23 16:02:00,
2013-01-23 09:12:00,19.0,11.0,-100.00,NE,49,2.0,4.0,71,0.00,,,0.00,1.000000,,2013-01-23 16:12:00,
2013-01-23 09:43:00,21.0,12.0,-100.00,SW,214,2.0,5.0,67,0.00,,,0.00,41.000000,,2013-01-23 16:43:00,
2013-01-23 09:53:00,21.0,12.0,-100.00,SW,214,2.0,5.0,67,0.00,,,0.00,41.000000,,2013-01-23 16:53:00,
2013-01-23 10:03:00,21.0,12.0,-100.00,SW,214,2.0,5.0,67,0.00,,,0.00,41.000000,,2013-01-23 17:03:00,
2013-01-23 10:12:00,21.0,12.0,-100.00,SW,214,2.0,5.0,67,0.00,,,0.00,41.000000,,2013-01-23 17:12:00,
2013-01-23 10:43:00,26.0,16.0,-100.00,NW,313,1.0,4.0,65,0.00,,,0.00,133.000000,,2013-01-23 17:43:00,
2013-01-23 10:53:00,26.0,16.0,-100.00,NW,313,1.0,4.0,65,0.00,,,0.00,133.000000,,2013-01-23 17:53:00,
2013-01-23 11:03:00,26.0,16.0,-100.00,NW,313,1.0,4.0,65,0.00,,,0.00,133.000000,,2013-01-23 18:03:00,
2013-01-23 11:12:00,26.0,16.0,-100.00,NW,313,1.0,4.0,65,0.00,,,0.00,133.000000,,2013-01-23 18:12:00,
2013-01-23 11:44:00,26.0,14.0,-100.00,NNW,332,2.0,4.0,59,0.00,,,0.00,175.000000,,2013-01-23 18:44:00,
2013-01-23 11:53:00,26.0,14.0,-100.00,NNW,332,2.0,4.0,59,0.00,,,0.00,175.000000,,2013-01-23 18:53:00,
2013-01-23 12:02:00,26.0,14.0,-100.00,NNW,332,2.0,4.0,59,0.00,,,0.00,175.000000,,2013-01-23 19:02:00,
2013-01-23 12:12:00,26.0,14.0,-100.00,NNW,332,2.0,4.0,59,0.00,,,0.00,175.000000,,2013-01-23 19:12:00,
2013-01-23 12:43:00,30.0,19.0,-100.00,North,356,1.0,5.0,64,0.00,,,0.00,223.000000,,2013-01-23 19:43:00,
2013-01-23 12:53:00,30.0,19.0,-100.00,North,356,1.0,5.0,64,0.00,,,0.00,223.000000,,2013-01-23 19:53:00,
2013-01-23 13:03:00,30.0,19.0,-100.00,North,356,1.0,5.0,64,0.00,,,0.00,223.000000,,2013-01-23 20:03:00,
2013-01-23 13:12:00,30.0,19.0,-100.00,North,356,1.0,5.0,64,0.00,,,0.00,223.000000,,2013-01-23 20:12:00,
2013-01-23 13:43:00,34.0,19.0,-100.00,WSW,244,3.0,5.0,54,0.00,,,0.00,290.000000,,2013-01-23 20:43:00,
2013-01-23 13:53:00,34.0,19.0,-100.00,WSW,244,3.0,5.0,54,0.00,,,0.00,290.000000,,2013-01-23 20:53:00,
2013-01-23 14:02:00,34.0,19.0,-100.00,WSW,244,3.0,5.0,54,0.00,,,0.00,290.000000,,2013-01-23 21:02:00,
2013-01-23 14:43:00,40.0,25.0,-100.00,SE,144,3.0,6.0,55,0.00,,,0.00,391.000000,,2013-01-23 21:43:00,
2013-01-23 14:53:00,40.0,25.0,-100.00,SE,144,3.0,6.0,55,0.00,,,0.00,391.000000,,2013-01-23 21:53:00,
2013-01-23 16:03:00,39.0,10.0,-100.00,NNW,335,3.0,10.0,30,-99.99,,,0.00,254.000000,,2013-01-23 23:03:00,
2013-01-23 16:12:00,39.0,10.0,-100.00,NNW,335,3.0,10.0,30,-99.99,,,0.00,254.000000,,2013-01-23 23:12:00,
2013-01-23 16:43:00,48.0,11.0,-100.00,SE,143,10.0,17.0,22,0.00,,,0.00,79.000000,,2013-01-23 23:43:00,
2013-01-23 16:53:00,48.0,11.0,-100.00,SE,143,10.0,17.0,22,0.00,,,0.00,79.000000,,2013-01-23 23:53:00,
2013-01-23 17:33:00,47.0,9.0,-100.00,SE,136,7.0,15.0,21,-99.99,,,0.00,43.000000,,2013-01-24 00:33:00,
2013-01-23 18:43:00,45.0,10.0,-100.00,South,184,19.0,25.0,24,-99.99,,,0.00,1.000000,,2013-01-24 01:43:00,
2013-01-23 18:52:00,45.0,10.0,-100.00,South,184,19.0,25.0,24,-99.99,,,0.00,1.000000,,2013-01-24 01:52:00,
2013-01-23 19:33:00,43.0,22.0,-100.00,ESE,120,7.0,18.0,42,-99.99,,,0.00,0.000000,,2013-01-24 02:33:00,
2013-01-23 19:42:00,43.0,22.0,-100.00,ESE,120,7.0,18.0,42,-99.99,,,0.00,0.000000,,2013-01-24 02:42:00,
2013-01-23 19:52:00,43.0,22.0,-100.00,ESE,120,7.0,18.0,42,-99.99,,,0.00,0.000000,,2013-01-24 02:52:00,
2013-01-23 20:02:00,43.0,22.0,-100.00,ESE,120,7.0,18.0,42,-99.99,,,0.00,0.000000,,2013-01-24 03:02:00,
2013-01-23 20:12:00,43.0,22.0,-100.00,ESE,120,7.0,18.0,42,-99.99,,,0.00,0.000000,,2013-01-24 03:12:00,
2013-01-23 20:43:00,44.0,20.0,-100.00,SE,126,9.0,15.0,38,0.00,,,0.00,0.000000,,2013-01-24 03:43:00,
2013-01-23 20:52:00,44.0,20.0,-100.00,SE,126,9.0,15.0,38,0.00,,,0.00,0.000000,,2013-01-24 03:52:00,
2013-01-23 21:02:00,44.0,20.0,-100.00,SE,126,9.0,15.0,38,0.00,,,0.00,0.000000,,2013-01-24 04:02:00,
2013-01-23 21:12:00,44.0,20.0,-100.00,SE,126,9.0,15.0,38,0.00,,,0.00,0.000000,,2013-01-24 04:12:00,
2013-01-23 21:43:00,45.0,24.0,-100.00,SSE,153,10.0,16.0,43,0.00,,,0.00,0.000000,,2013-01-24 04:43:00,
2013-01-23 21:53:00,45.0,24.0,-100.00,SSE,153,10.0,16.0,43,0.00,,,0.00,0.000000,,2013-01-24 04:53:00,
2013-01-23 22:03:00,45.0,24.0,-100.00,SSE,153,10.0,16.0,43,0.00,,,0.00,0.000000,,2013-01-24 05:03:00,
2013-01-23 22:12:00,45.0,24.0,-100.00,SSE,153,10.0,16.0,43,0.00,,,0.00,0.000000,,2013-01-24 05:12:00,
2013-01-23 22:33:00,45.0,18.0,-100.00,South,173,11.0,21.0,34,0.00,,,0.00,0.000000,,2013-01-24 05:33:00,
2013-01-23 22:43:00,45.0,18.0,-100.00,South,173,11.0,21.0,34,0.00,,,0.00,0.000000,,2013-01-24 05:43:00,
2013-01-23 22:53:00,45.0,18.0,-100.00,South,173,11.0,21.0,34,0.00,,,0.00,0.000000,,2013-01-24 05:53:00,
2013-01-23 23:02:00,45.0,18.0,-100.00,South,173,11.0,21.0,34,0.00,,,0.00,0.000000,,2013-01-24 06:02:00,
2013-01-23 23:12:00,45.0,18.0,-100.00,South,173,11.0,21.0,34,0.00,,,0.00,0.000000,,2013-01-24 06:12:00,
2013-01-23 23:42:00,43.0,16.0,-100.00,SSE,166,16.0,24.0,33,0.00,,,0.00,0.000000,,2013-01-24 06:42:00,
2013-01-23 23:52:00,43.0,16.0,-100.00,SSE,166,16.0,24.0,33,0.00,,,0.00,0.000000,,2013-01-24 06:52:00,